Time;durP1;ratioP1;P1;durP2;ratioP2;P2;SDS_P1;SDS_P2;PMS_P1;PMS_P2;Temp;Humidity;BMP_temperature;BMP_pressure;BME280_temperature;BME280_humidity;BME280_pressure;Samples;Min_cycle;Max_cycle;Signal;HPM_P1;HPM_P2
2023/08/16 00:01:00;;;;;;;13.13;10.93;;;;;;;-148.88;100.00;-17125.47;4974734;28;20034;-75
2023/08/16 00:03:26;;;;;;;14.88;11.45;;;;;;;-148.88;100.00;-17125.47;4973423;28;20483;-75
2023/08/16 00:05:52;;;;;;;14.52;11.23;;;;;;;-148.88;100.00;-17125.47;4973524;28;20022;-75
2023/08/16 00:08:18;;;;;;;14.80;11.35;;;;;;;-148.88;100.00;-17125.47;4974574;28;20401;-75
2023/08/16 00:10:43;;;;;;;14.63;11.48;;;;;;;-148.88;100.00;-17125.47;4974499;28;20018;-75
2023/08/16 00:13:08;;;;;;;14.32;10.57;;;;;;;-148.88;100.00;-17125.47;4974414;28;20052;-75
2023/08/16 00:15:34;;;;;;;15.52;10.77;;;;;;;-148.88;100.00;-17125.47;4974425;28;20097;-75
2023/08/16 00:17:59;;;;;;;13.30;10.95;;;;;;;-148.88;100.00;-17125.47;4974557;28;20077;-75
2023/08/16 00:20:27;;;;;;;16.10;11.27;;;;;;;-148.88;100.00;-17125.47;4974561;28;20023;-74
2023/08/16 00:22:53;;;;;;;13.27;10.93;;;;;;;-148.88;100.00;-17125.47;4974606;28;20552;-75
2023/08/16 00:25:18;;;;;;;13.80;10.85;;;;;;;-148.88;100.00;-17125.47;4974569;28;20027;-75
2023/08/16 00:27:44;;;;;;;13.60;10.32;;;;;;;-148.88;100.00;-17125.47;4973437;28;20513;-75
2023/08/16 00:30:10;;;;;;;15.32;10.40;;;;;;;-148.88;100.00;-17125.47;4973226;28;20066;-75
2023/08/16 00:32:35;;;;;;;12.70;10.50;;;;;;;-148.88;100.00;-17125.47;4974386;28;20393;-75
2023/08/16 00:35:02;;;;;;;12.35;9.18;;;;;;;-148.88;100.00;-17125.47;4974364;28;20542;-75
2023/08/16 00:37:27;;;;;;;14.23;9.48;;;;;;;-148.88;100.00;-17125.47;4974487;28;20038;-75
2023/08/16 00:39:52;;;;;;;14.35;10.07;;;;;;;-148.88;100.00;-17125.47;4974614;28;20046;-75
2023/08/16 00:42:18;;;;;;;15.63;11.25;;;;;;;-148.88;100.00;-17125.47;4973052;28;20023;-75
2023/08/16 00:44:43;;;;;;;17.25;11.50;;;;;;;-148.88;100.00;-17125.47;4978040;28;20105;-74
2023/08/16 00:47:08;;;;;;;15.45;12.25;;;;;;;-148.88;100.00;-17125.47;4976938;28;20030;-75
2023/08/16 00:49:37;;;;;;;15.32;11.75;;;;;;;-148.88;100.00;-17125.47;4977217;28;20394;-74
2023/08/16 00:52:04;;;;;;;17.38;11.65;;;;;;;-148.88;100.00;-17125.47;4976652;22;20047;-91
2023/08/16 00:54:29;;;;;;;14.07;10.88;;;;;;;-148.88;100.00;-17125.47;4976316;28;20027;-92
2023/08/16 00:56:57;;;;;;;12.50;10.95;;;;;;;-148.88;100.00;-17125.47;4959849;29;20034;-92
2023/08/16 00:59:23;;;;;;;13.82;10.82;;;;;;;-148.88;100.00;-17125.47;4975833;28;20042;-91
2023/08/16 01:01:51;;;;;;;13.52;11.35;;;;;;;-148.88;100.00;-17125.47;4977053;28;20019;-91
2023/08/16 01:04:16;;;;;;;13.60;10.70;;;;;;;-148.88;100.00;-17125.47;5011634;23;20046;-76
2023/08/16 01:06:42;;;;;;;13.05;10.82;;;;;;;-148.88;100.00;-17125.47;5016741;28;20021;-76
2023/08/16 01:09:07;;;;;;;15.20;10.90;;;;;;;-148.88;100.00;-17125.47;5016518;28;20113;-76
2023/08/16 01:11:46;;;;;;;14.63;11.10;;;;;;;-148.88;100.00;-17125.47;5015154;28;20486;-76
2023/08/16 01:14:21;;;;;;;11.73;9.73;;;;;;;-148.88;100.00;-17125.47;5016531;28;20101;-76
2023/08/16 01:16:48;;;;;;;14.23;10.20;;;;;;;-148.88;100.00;-17125.47;5016344;28;20066;-76
2023/08/16 01:19:20;;;;;;;11.75;9.68;;;;;;;-148.88;100.00;-17125.47;5016799;28;20527;-76
2023/08/16 01:21:59;;;;;;;16.58;10.68;;;;;;;-148.88;100.00;-17125.47;5016580;28;20029;-76
2023/08/16 01:24:35;;;;;;;13.75;11.70;;;;;;;-148.88;100.00;-17125.47;5016201;28;20033;-76
2023/08/16 01:27:02;;;;;;;15.75;12.30;;;;;;;-148.88;100.00;-17125.47;5016554;28;20033;-76
2023/08/16 01:29:29;;;;;;;19.67;13.80;;;;;;;-148.88;100.00;-17125.47;5016101;28;20029;-76
2023/08/16 01:31:55;;;;;;;17.17;14.43;;;;;;;-148.88;100.00;-17125.47;5014734;28;20076;-76
2023/08/16 01:34:20;;;;;;;18.10;14.27;;;;;;;-148.88;100.00;-17125.47;5014665;28;20030;-75
2023/08/16 01:36:45;;;;;;;17.88;14.48;;;;;;;-148.88;100.00;-17125.47;5015983;28;20053;-76
2023/08/16 01:39:11;;;;;;;16.98;13.23;;;;;;;-148.88;100.00;-17125.47;5015924;28;20025;-76
2023/08/16 01:41:54;;;;;;;18.52;14.82;;;;;;;-148.88;100.00;-17125.47;5016015;28;20441;-76
2023/08/16 01:44:23;;;;;;;17.05;13.98;;;;;;;-148.88;100.00;-17125.47;5016109;28;20038;-77
2023/08/16 01:46:50;;;;;;;18.23;14.18;;;;;;;-148.88;100.00;-17125.47;5016037;28;20034;-76
2023/08/16 01:49:15;;;;;;;15.23;13.25;;;;;;;-148.88;100.00;-17125.47;5016006;28;20436;-76
2023/08/16 01:51:41;;;;;;;20.52;13.80;;;;;;;-148.88;100.00;-17125.47;5015623;28;20477;-76
2023/08/16 01:54:06;;;;;;;18.58;14.95;;;;;;;-148.88;100.00;-17125.47;5015426;28;20346;-76
2023/08/16 01:56:32;;;;;;;19.48;15.23;;;;;;;-148.88;100.00;-17125.47;5014993;28;20026;-76
2023/08/16 01:58:57;;;;;;;20.65;16.00;;;;;;;-148.88;100.00;-17125.47;5014221;28;20049;-76
2023/08/16 02:01:22;;;;;;;24.98;16.02;;;;;;;-148.88;100.00;-17125.47;5015534;28;20431;-76
2023/08/16 02:03:48;;;;;;;23.58;16.45;;;;;;;-148.88;100.00;-17125.47;5015385;28;20033;-76
2023/08/16 02:06:14;;;;;;;22.52;16.27;;;;;;;-148.88;100.00;-17125.47;5014212;28;20022;-76
2023/08/16 02:08:39;;;;;;;21.95;16.45;;;;;;;-148.88;100.00;-17125.47;5015311;28;20022;-76
2023/08/16 02:11:04;;;;;;;20.52;16.33;;;;;;;-148.88;100.00;-17125.47;5015349;28;20036;-77
2023/08/16 02:13:30;;;;;;;21.63;16.38;;;;;;;-148.88;100.00;-17125.47;5015853;28;20226;-76
2023/08/16 02:16:02;;;;;;;21.63;17.60;;;;;;;-148.88;100.00;-17125.47;5015217;28;20057;-76
2023/08/16 02:18:29;;;;;;;21.23;16.92;;;;;;;-148.88;100.00;-17125.47;5015250;28;20459;-76
2023/08/16 02:20:54;;;;;;;22.08;15.75;;;;;;;-148.88;100.00;-17125.47;5013828;28;20072;-76
2023/08/16 02:23:19;;;;;;;20.52;15.73;;;;;;;-148.88;100.00;-17125.47;5015121;28;20053;-76
2023/08/16 02:25:45;;;;;;;20.75;15.23;;;;;;;-148.88;100.00;-17125.47;5015087;28;20108;-76
2023/08/16 02:28:10;;;;;;;20.25;14.57;;;;;;;-148.88;100.00;-17125.47;5014931;28;20026;-76
2023/08/16 02:30:35;;;;;;;20.40;15.20;;;;;;;-148.88;100.00;-17125.47;5013682;28;20022;-76
2023/08/16 02:33:01;;;;;;;17.98;14.52;;;;;;;-148.88;100.00;-17125.47;5015224;28;20057;-76
2023/08/16 02:35:26;;;;;;;19.45;14.68;;;;;;;-148.88;100.00;-17125.47;5014877;28;20034;-76
2023/08/16 02:37:52;;;;;;;20.17;14.70;;;;;;;-148.88;100.00;-17125.47;5013477;28;20473;-76
2023/08/16 02:40:17;;;;;;;20.85;15.30;;;;;;;-148.88;100.00;-17125.47;5014751;28;20033;-76
2023/08/16 02:42:42;;;;;;;20.02;13.60;;;;;;;-148.88;100.00;-17125.47;5014986;28;20022;-76
2023/08/16 02:45:08;;;;;;;18.42;15.02;;;;;;;-148.88;100.00;-17125.47;5014718;28;20018;-76
2023/08/16 02:47:33;;;;;;;22.52;15.20;;;;;;;-148.88;100.00;-17125.47;5014542;28;20072;-76
2023/08/16 02:49:59;;;;;;;22.67;14.63;;;;;;;-148.88;100.00;-17125.47;5014644;28;20065;-76
2023/08/16 02:52:24;;;;;;;20.45;15.27;;;;;;;-148.88;100.00;-17125.47;5013265;28;20068;-76
2023/08/16 02:54:49;;;;;;;24.75;15.10;;;;;;;-148.88;100.00;-17125.47;5014600;28;20029;-76
2023/08/16 02:57:16;;;;;;;20.77;15.23;;;;;;;-148.88;100.00;-17125.47;5014416;28;20049;-76
2023/08/16 02:59:47;;;;;;;21.80;16.17;;;;;;;-148.88;100.00;-17125.47;5014447;28;20504;-76
2023/08/16 03:02:15;;;;;;;18.33;14.98;;;;;;;-148.88;100.00;-17125.47;5014678;28;20032;-76
2023/08/16 03:04:40;;;;;;;20.65;14.90;;;;;;;-148.88;100.00;-17125.47;5012994;28;20030;-76
2023/08/16 03:07:07;;;;;;;20.27;14.15;;;;;;;-148.88;100.00;-17125.47;5012918;28;20026;-76
2023/08/16 03:09:33;;;;;;;19.70;14.10;;;;;;;-148.88;100.00;-17125.47;5013137;28;20029;-76
2023/08/16 03:11:58;;;;;;;22.42;14.57;;;;;;;-148.88;100.00;-17125.47;5012855;28;20033;-76
2023/08/16 03:14:23;;;;;;;19.20;14.45;;;;;;;-148.88;100.00;-17125.47;5014458;28;20480;-76
2023/08/16 03:16:49;;;;;;;17.02;14.35;;;;;;;-148.88;100.00;-17125.47;5014258;28;20408;-76
2023/08/16 03:19:14;;;;;;;19.13;13.90;;;;;;;-148.88;100.00;-17125.47;5014124;28;20026;-76
2023/08/16 03:21:40;;;;;;;21.52;14.07;;;;;;;-148.88;100.00;-17125.47;5014030;28;20389;-76
2023/08/16 03:24:05;;;;;;;21.50;16.27;;;;;;;-148.88;100.00;-17125.47;5012724;28;20400;-76
2023/08/16 03:26:31;;;;;;;22.08;16.08;;;;;;;-148.88;100.00;-17125.47;5014395;28;20071;-75
2023/08/16 03:28:56;;;;;;;21.33;16.35;;;;;;;-148.88;100.00;-17125.47;5012578;28;20065;-77
2023/08/16 03:31:22;;;;;;;23.27;16.52;;;;;;;-148.88;100.00;-17125.47;5014002;28;20113;-76
2023/08/16 03:33:47;;;;;;;23.75;16.48;;;;;;;-148.88;100.00;-17125.47;5013838;28;20026;-76
2023/08/16 03:36:13;;;;;;;20.48;15.55;;;;;;;-148.88;100.00;-17125.47;5012487;28;20159;-76
2023/08/16 03:38:39;;;;;;;19.98;15.73;;;;;;;-148.88;100.00;-17125.47;5013699;28;20388;-76
2023/08/16 03:41:04;;;;;;;20.58;15.85;;;;;;;-148.88;100.00;-17125.47;5013762;28;20029;-76
2023/08/16 03:43:31;;;;;;;21.92;17.15;;;;;;;-148.88;100.00;-17125.47;5013635;28;20022;-76
2023/08/16 03:45:56;;;;;;;21.83;15.82;;;;;;;-148.88;100.00;-17125.47;5012362;28;20048;-76
2023/08/16 03:48:22;;;;;;;21.40;15.88;;;;;;;-148.88;100.00;-17125.47;5013464;28;20022;-76
2023/08/16 03:50:47;;;;;;;20.27;14.82;;;;;;;-148.88;100.00;-17125.47;5014006;28;20080;-76
2023/08/16 03:53:12;;;;;;;20.73;15.07;;;;;;;-148.88;100.00;-17125.47;5013478;28;20108;-76
2023/08/16 03:55:38;;;;;;;22.23;15.52;;;;;;;-148.88;100.00;-17125.47;5013441;28;20022;-76
2023/08/16 03:58:03;;;;;;;24.27;15.88;;;;;;;-148.88;100.00;-17125.47;5013347;28;20053;-76
2023/08/16 04:00:29;;;;;;;17.88;14.43;;;;;;;-148.88;100.00;-17125.47;5013367;28;20393;-76
2023/08/16 04:02:54;;;;;;;21.63;14.85;;;;;;;-148.88;100.00;-17125.47;5013195;28;20374;-76
2023/08/16 04:05:21;;;;;;;17.73;12.90;;;;;;;-148.88;100.00;-17125.47;5013841;28;20479;-78
2023/08/16 04:07:47;;;;;;;16.75;11.80;;;;;;;-148.88;100.00;-17125.47;5012124;28;20084;-77
2023/08/16 04:10:12;;;;;;;18.98;13.60;;;;;;;-148.88;100.00;-17125.47;5013752;28;20042;-77
2023/08/16 04:12:38;;;;;;;18.85;13.98;;;;;;;-148.88;100.00;-17125.47;5013654;28;20068;-76
2023/08/16 04:15:03;;;;;;;24.65;16.27;;;;;;;-148.88;100.00;-17125.47;5013366;28;20148;-76
2023/08/16 04:17:29;;;;;;;26.77;17.08;;;;;;;-148.88;100.00;-17125.47;5011547;28;20029;-76
2023/08/16 04:19:55;;;;;;;21.73;16.90;;;;;;;-148.88;100.00;-17125.47;5012791;28;20517;-76
2023/08/16 04:22:20;;;;;;;21.00;15.35;;;;;;;-148.88;100.00;-17125.47;5013170;28;20072;-76
2023/08/16 04:24:46;;;;;;;20.63;15.60;;;;;;;-148.88;100.00;-17125.47;5012996;28;20021;-76
2023/08/16 04:27:11;;;;;;;24.80;15.93;;;;;;;-148.88;100.00;-17125.47;5012917;28;20076;-76
2023/08/16 04:29:37;;;;;;;20.50;13.82;;;;;;;-148.88;100.00;-17125.47;5013548;28;20037;-77
2023/08/16 04:32:02;;;;;;;17.42;11.25;;;;;;;-148.88;100.00;-17125.47;5012827;28;20053;-76
2023/08/16 04:34:28;;;;;;;15.90;11.82;;;;;;;-148.88;100.00;-17125.47;5012908;28;20453;-76
2023/08/16 04:36:53;;;;;;;18.13;11.05;;;;;;;-148.88;100.00;-17125.47;5012797;28;20057;-76
2023/08/16 04:39:19;;;;;;;18.23;9.07;;;;;;;-148.88;100.00;-17125.47;5012836;28;20060;-76
2023/08/16 04:41:44;;;;;;;15.15;9.57;;;;;;;-148.88;100.00;-17125.47;5012829;28;20484;-77
2023/08/16 04:44:10;;;;;;;16.15;9.73;;;;;;;-148.88;100.00;-17125.47;5012839;28;20516;-76
2023/08/16 04:46:35;;;;;;;13.95;8.40;;;;;;;-148.88;100.00;-17125.47;5012826;28;20021;-76
2023/08/16 04:49:00;;;;;;;17.85;8.32;;;;;;;-148.88;100.00;-17125.47;5012869;28;20095;-77
2023/08/16 04:51:26;;;;;;;13.50;7.57;;;;;;;-148.88;100.00;-17125.47;5013242;28;20025;-76
2023/08/16 04:53:51;;;;;;;12.88;7.43;;;;;;;-148.88;100.00;-17125.47;5011528;28;20034;-76
2023/08/16 04:56:17;;;;;;;11.45;7.40;;;;;;;-148.88;100.00;-17125.47;5012765;28;20018;-76
2023/08/16 04:58:42;;;;;;;14.05;7.47;;;;;;;-148.88;100.00;-17125.47;5012727;28;20545;-76
2023/08/16 05:01:09;;;;;;;12.68;7.13;;;;;;;-148.88;100.00;-17125.47;5012711;28;20056;-76
2023/08/16 05:03:34;;;;;;;11.52;7.85;;;;;;;-148.88;100.00;-17125.47;5012679;28;20034;-76
2023/08/16 05:06:02;;;;;;;13.38;7.15;;;;;;;-148.88;100.00;-17125.47;5013330;28;20535;-76
2023/08/16 05:08:31;;;;;;;15.15;7.28;;;;;;;-148.88;100.00;-17125.47;5012726;28;20026;-76
2023/08/16 05:10:57;;;;;;;14.40;7.05;;;;;;;-148.88;100.00;-17125.47;5012604;28;20065;-76
2023/08/16 05:13:23;;;;;;;12.43;7.43;;;;;;;-148.88;100.00;-17125.47;5012885;28;20026;-76
2023/08/16 05:15:48;;;;;;;10.98;7.25;;;;;;;-148.88;100.00;-17125.47;5013107;28;20022;-76
2023/08/16 05:18:14;;;;;;;14.95;6.38;;;;;;;-148.88;100.00;-17125.47;5012684;28;20018;-76
2023/08/16 05:20:39;;;;;;;9.85;6.75;;;;;;;-148.88;100.00;-17125.47;5011138;28;20113;-77
2023/08/16 05:23:05;;;;;;;10.43;6.75;;;;;;;-148.88;100.00;-17125.47;5012728;28;20057;-76
2023/08/16 05:25:30;;;;;;;13.52;7.05;;;;;;;-148.88;100.00;-17125.47;5012863;28;20137;-77
2023/08/16 05:27:58;;;;;;;8.65;6.18;;;;;;;-148.88;100.00;-17125.47;5012429;28;20029;-77
2023/08/16 05:30:25;;;;;;;12.65;7.13;;;;;;;-148.88;100.00;-17125.47;5013653;28;20022;-77
2023/08/16 05:32:50;;;;;;;12.15;7.28;;;;;;;-148.88;100.00;-17125.47;5016192;28;20567;-77
2023/08/16 05:35:16;;;;;;;12.55;7.25;;;;;;;-148.88;100.00;-17125.47;5015890;28;20038;-76
2023/08/16 05:37:41;;;;;;;9.52;6.63;;;;;;;-148.88;100.00;-17125.47;5015846;28;20072;-76
2023/08/16 05:40:09;;;;;;;9.45;5.97;;;;;;;-148.88;100.00;-17125.47;5015954;28;20415;-76
2023/08/16 05:42:34;;;;;;;8.98;6.13;;;;;;;-148.88;100.00;-17125.47;5016077;28;20018;-76
2023/08/16 05:44:59;;;;;;;8.73;5.85;;;;;;;-148.88;100.00;-17125.47;5016232;28;20128;-77
2023/08/16 05:47:25;;;;;;;9.13;6.47;;;;;;;-148.88;100.00;-17125.47;5015670;28;20065;-76
2023/08/16 05:49:50;;;;;;;11.90;7.60;;;;;;;-148.88;100.00;-17125.47;5015589;28;20116;-77
2023/08/16 05:52:15;;;;;;;10.65;7.45;;;;;;;-148.88;100.00;-17125.47;5015789;28;20113;-77
2023/08/16 05:54:41;;;;;;;9.50;7.22;;;;;;;-148.88;100.00;-17125.47;5015558;28;20068;-76
2023/08/16 05:57:06;;;;;;;11.57;7.50;;;;;;;-148.88;100.00;-17125.47;5014174;28;20053;-76
2023/08/16 05:59:31;;;;;;;10.80;8.00;;;;;;;-148.88;100.00;-17125.47;5015936;28;20025;-76
2023/08/16 06:01:57;;;;;;;12.13;8.10;;;;;;;-148.88;100.00;-17125.47;5015613;28;20025;-77
2023/08/16 06:04:22;;;;;;;10.55;7.10;;;;;;;-148.88;100.00;-17125.47;5014023;28;20073;-77
2023/08/16 06:06:48;;;;;;;12.90;7.70;;;;;;;-148.88;100.00;-17125.47;5014213;28;20378;-77
2023/08/16 06:09:14;;;;;;;11.65;6.72;;;;;;;-148.88;100.00;-17125.47;5014320;28;20026;-77
2023/08/16 06:11:39;;;;;;;9.05;6.28;;;;;;;-148.88;100.00;-17125.47;5015697;28;20033;-77
2023/08/16 06:14:05;;;;;;;8.88;6.28;;;;;;;-148.88;100.00;-17125.47;5013825;28;20021;-77
2023/08/16 06:16:30;;;;;;;12.73;6.45;;;;;;;-148.88;100.00;-17125.47;5012490;28;20026;-78
2023/08/16 06:18:56;;;;;;;9.23;6.10;;;;;;;-148.88;100.00;-17125.47;5014606;28;20069;-77
2023/08/16 06:21:21;;;;;;;8.20;5.45;;;;;;;-148.88;100.00;-17125.47;5014595;28;20029;-77
2023/08/16 06:23:47;;;;;;;8.60;4.82;;;;;;;-148.88;100.00;-17125.47;5014715;28;20022;-77
2023/08/16 06:26:13;;;;;;;9.30;4.53;;;;;;;-148.88;100.00;-17125.47;5014664;28;20033;-77
2023/08/16 06:28:38;;;;;;;7.55;4.13;;;;;;;-148.88;100.00;-17125.47;5014416;28;20029;-77
2023/08/16 06:31:04;;;;;;;8.38;4.10;;;;;;;-148.88;100.00;-17125.47;5008732;28;20453;-77
2023/08/16 06:33:30;;;;;;;13.60;4.28;;;;;;;-148.88;100.00;-17125.47;4994854;28;20039;-77
2023/08/16 06:35:55;;;;;;;6.20;3.95;;;;;;;-148.88;100.00;-17125.47;4994768;28;20504;-77
2023/08/16 06:38:21;;;;;;;6.10;3.90;;;;;;;-148.88;100.00;-17125.47;4994621;28;20037;-77
2023/08/16 06:40:47;;;;;;;6.30;3.75;;;;;;;-148.88;100.00;-17125.47;4994247;28;20058;-77
2023/08/16 06:43:12;;;;;;;6.50;3.53;;;;;;;-148.88;100.00;-17125.47;4994503;28;20053;-77
2023/08/16 06:45:37;;;;;;;6.40;3.05;;;;;;;-148.88;100.00;-17125.47;4994538;28;20044;-77
2023/08/16 06:48:03;;;;;;;7.65;3.60;;;;;;;-148.88;100.00;-17125.47;4994384;28;20049;-77
2023/08/16 06:50:30;;;;;;;9.80;3.67;;;;;;;-148.88;100.00;-17125.47;4994368;28;20026;-77
2023/08/16 06:52:55;;;;;;;5.30;2.67;;;;;;;-148.88;100.00;-17125.47;4992929;28;20029;-77
2023/08/16 06:55:21;;;;;;;6.68;3.05;;;;;;;-148.88;100.00;-17125.47;4993076;28;20030;-77
2023/08/16 06:57:46;;;;;;;7.15;2.80;;;;;;;-148.88;100.00;-17125.47;4994813;28;20018;-77
2023/08/16 07:00:12;;;;;;;5.63;2.67;;;;;;;-148.88;100.00;-17125.47;4994790;28;20101;-76
2023/08/16 07:02:37;;;;;;;9.25;3.38;;;;;;;-148.88;100.00;-17125.47;4994494;28;20018;-76
2023/08/16 07:05:03;;;;;;;7.25;2.80;;;;;;;-148.88;100.00;-17125.47;4994683;28;20037;-76
2023/08/16 07:07:31;;;;;;;4.90;2.70;;;;;;;-148.88;100.00;-17125.47;4994659;28;20026;-77
2023/08/16 07:09:56;;;;;;;5.88;2.55;;;;;;;-148.88;100.00;-17125.47;5008255;28;20029;-77
2023/08/16 07:12:22;;;;;;;8.70;2.80;;;;;;;-148.88;100.00;-17125.47;5014343;28;20526;-77
2023/08/16 07:14:49;;;;;;;6.93;2.65;;;;;;;-148.88;100.00;-17125.47;5012708;28;20489;-78
2023/08/16 07:17:14;;;;;;;5.05;2.47;;;;;;;-148.88;100.00;-17125.47;5013864;28;20059;-78
2023/08/16 07:19:40;;;;;;;5.88;2.30;;;;;;;-148.88;100.00;-17125.47;5014046;28;20053;-78
2023/08/16 07:22:05;;;;;;;6.10;2.45;;;;;;;-148.88;100.00;-17125.47;5013931;28;20029;-77
2023/08/16 07:24:31;;;;;;;7.28;2.53;;;;;;;-148.88;100.00;-17125.47;5012860;28;20022;-77
2023/08/16 07:26:56;;;;;;;5.78;2.60;;;;;;;-148.88;100.00;-17125.47;5012815;28;20516;-77
2023/08/16 07:29:22;;;;;;;8.00;2.33;;;;;;;-148.88;100.00;-17125.47;5012424;28;20481;-77
2023/08/16 07:31:48;;;;;;;5.25;2.28;;;;;;;-148.88;100.00;-17125.47;5013649;28;20033;-77
2023/08/16 07:34:14;;;;;;;6.45;2.45;;;;;;;-148.88;100.00;-17125.47;5013742;28;20026;-76
2023/08/16 07:36:40;;;;;;;6.45;2.13;;;;;;;-148.88;100.00;-17125.47;5013622;28;20029;-77
2023/08/16 07:39:05;;;;;;;5.07;1.90;;;;;;;-148.88;100.00;-17125.47;5013618;28;20393;-76
2023/08/16 07:41:30;;;;;;;7.38;2.33;;;;;;;-148.88;100.00;-17125.47;5013516;28;20037;-77
2023/08/16 07:43:56;;;;;;;6.55;2.10;;;;;;;-148.88;100.00;-17125.47;5005855;28;20081;-76
2023/08/16 07:46:21;;;;;;;5.55;2.00;;;;;;;-148.88;100.00;-17125.47;4992876;28;20022;-78
2023/08/16 07:48:46;;;;;;;5.35;2.22;;;;;;;-148.88;100.00;-17125.47;5012149;28;20026;-76
2023/08/16 07:51:12;;;;;;;5.88;1.92;;;;;;;-148.88;100.00;-17125.47;5013312;28;20026;-78
2023/08/16 07:53:37;;;;;;;5.97;2.13;;;;;;;-148.88;100.00;-17125.47;4993567;28;20077;-77
2023/08/16 07:56:02;;;;;;;5.60;2.03;;;;;;;-148.88;100.00;-17125.47;4992897;28;20103;-77
2023/08/16 07:58:28;;;;;;;5.95;2.13;;;;;;;-148.88;100.00;-17125.47;4992506;28;20026;-77
2023/08/16 08:00:54;;;;;;;6.45;1.98;;;;;;;-148.88;100.00;-17125.47;4993875;28;20019;-76
2023/08/16 08:03:21;;;;;;;5.05;2.20;;;;;;;-148.88;100.00;-17125.47;4993511;28;20034;-77
2023/08/16 08:05:47;;;;;;;9.45;2.20;;;;;;;-148.88;100.00;-17125.47;4993447;28;20054;-77
2023/08/16 08:08:12;;;;;;;5.13;2.05;;;;;;;-148.88;100.00;-17125.47;4993479;28;20080;-76
2023/08/16 08:10:42;;;;;;;7.38;2.00;;;;;;;-148.88;100.00;-17125.47;4993268;28;20030;-77
2023/08/16 08:13:08;;;;;;;5.68;2.13;;;;;;;-148.88;100.00;-17125.47;4992405;28;20424;-76
2023/08/16 08:15:34;;;;;;;5.35;1.92;;;;;;;-148.88;100.00;-17125.47;4993281;28;20054;-76
2023/08/16 08:17:59;;;;;;;4.72;2.30;;;;;;;-148.88;100.00;-17125.47;4993352;28;20030;-77
2023/08/16 08:20:25;;;;;;;7.55;2.28;;;;;;;-148.88;100.00;-17125.47;4993255;28;20033;-76
2023/08/16 08:22:50;;;;;;;3.70;1.50;;;;;;;-148.88;100.00;-17125.47;4992047;28;20516;-76
2023/08/16 08:25:18;;;;;;;4.93;1.77;;;;;;;-148.88;100.00;-17125.47;4993336;28;20408;-76
2023/08/16 08:27:43;;;;;;;4.40;1.60;;;;;;;-148.88;100.00;-17125.47;4993211;28;20468;-76
2023/08/16 08:30:09;;;;;;;6.93;1.90;;;;;;;-148.88;100.00;-17125.47;4991752;28;20500;-76
2023/08/16 08:32:35;;;;;;;4.63;1.88;;;;;;;-148.88;100.00;-17125.47;4993009;28;20147;-76
2023/08/16 08:35:00;;;;;;;4.03;1.80;;;;;;;-148.88;100.00;-17125.47;4991742;28;20030;-76
2023/08/16 08:37:25;;;;;;;5.15;1.90;;;;;;;-148.88;100.00;-17125.47;4993127;28;20034;-76
2023/08/16 08:39:51;;;;;;;6.47;2.28;;;;;;;-148.88;100.00;-17125.47;4992921;28;20037;-76
2023/08/16 08:42:16;;;;;;;6.75;2.08;;;;;;;-148.88;100.00;-17125.47;4992935;28;20105;-75
2023/08/16 08:44:42;;;;;;;3.03;1.77;;;;;;;-148.88;100.00;-17125.47;4992804;28;20057;-76
2023/08/16 08:47:11;;;;;;;6.70;1.90;;;;;;;-148.88;100.00;-17125.47;4992967;28;20034;-76
2023/08/16 08:49:37;;;;;;;7.10;1.88;;;;;;;-148.88;100.00;-17125.47;4992745;28;20105;-76
2023/08/16 08:52:04;;;;;;;4.88;1.70;;;;;;;-148.88;100.00;-17125.47;4991281;28;20026;-76
2023/08/16 08:54:30;;;;;;;5.35;1.70;;;;;;;-148.88;100.00;-17125.47;4991415;28;20483;-76
2023/08/16 08:56:59;;;;;;;5.53;1.73;;;;;;;-148.88;100.00;-17125.47;4992574;28;20056;-76
2023/08/16 08:59:26;;;;;;;3.38;1.70;;;;;;;-148.88;100.00;-17125.47;4991339;28;20022;-76
2023/08/16 09:01:52;;;;;;;3.72;1.83;;;;;;;-148.88;100.00;-17125.47;4993020;28;20056;-76
2023/08/16 09:04:19;;;;;;;4.13;1.80;;;;;;;-148.88;100.00;-17125.47;4993927;28;20031;-76
2023/08/16 09:06:46;;;;;;;4.22;1.77;;;;;;;-148.88;100.00;-17125.47;4994981;28;20370;-76
2023/08/16 09:09:12;;;;;;;4.60;1.80;;;;;;;-148.88;100.00;-17125.47;4995332;28;20393;-76
2023/08/16 09:11:37;;;;;;;3.92;2.10;;;;;;;-148.88;100.00;-17125.47;4996239;28;20481;-76
2023/08/16 09:14:04;;;;;;;5.25;2.00;;;;;;;-148.88;100.00;-17125.47;4996465;28;20026;-76
2023/08/16 09:16:30;;;;;;;5.05;2.17;;;;;;;-148.88;100.00;-17125.47;4996329;28;20489;-76
2023/08/16 09:18:55;;;;;;;8.32;3.47;;;;;;;-148.88;100.00;-17125.47;4994753;28;20057;-76
2023/08/16 09:21:24;;;;;;;9.38;5.47;;;;;;;-148.88;100.00;-17125.47;4995137;28;20108;-77
2023/08/16 09:23:56;;;;;;;7.47;5.00;;;;;;;-148.88;100.00;-17125.47;4996188;28;20397;-76
2023/08/16 09:26:22;;;;;;;9.75;4.97;;;;;;;-148.88;100.00;-17125.47;4996179;28;20023;-76
2023/08/16 09:28:47;;;;;;;8.25;6.30;;;;;;;-148.88;100.00;-17125.47;4996134;28;20026;-76
2023/08/16 09:31:13;;;;;;;12.10;6.45;;;;;;;-148.88;100.00;-17125.47;4996212;28;20034;-76
2023/08/16 09:33:38;;;;;;;9.13;6.95;;;;;;;-148.88;100.00;-17125.47;4995914;28;20018;-76
2023/08/16 09:36:04;;;;;;;7.85;6.65;;;;;;;-148.88;100.00;-17125.47;4995966;28;20374;-76
2023/08/16 09:38:31;;;;;;;9.68;6.90;;;;;;;-148.88;100.00;-17125.47;4994565;28;20026;-76
2023/08/16 09:40:58;;;;;;;8.32;6.75;;;;;;;-148.88;100.00;-17125.47;4994574;28;20030;-76
2023/08/16 09:43:23;;;;;;;9.30;5.97;;;;;;;-148.88;100.00;-17125.47;4994452;28;20465;-76
2023/08/16 09:45:51;;;;;;;9.45;7.28;;;;;;;-148.88;100.00;-17125.47;4995683;28;20130;-76
2023/08/16 09:48:19;;;;;;;11.20;6.72;;;;;;;-148.88;100.00;-17125.47;4994346;28;20046;-76
2023/08/16 09:50:45;;;;;;;9.93;6.60;;;;;;;-148.88;100.00;-17125.47;4994246;28;20023;-76
2023/08/16 09:53:12;;;;;;;9.80;6.18;;;;;;;-148.88;100.00;-17125.47;4995851;28;20109;-76
2023/08/16 09:55:40;;;;;;;11.05;6.00;;;;;;;-148.88;100.00;-17125.47;4994330;28;20100;-76
2023/08/16 09:58:07;;;;;;;8.90;5.75;;;;;;;-148.88;100.00;-17125.47;4994283;28;20032;-76
2023/08/16 10:00:34;;;;;;;9.65;5.80;;;;;;;-148.88;100.00;-17125.47;4995692;28;20041;-76
2023/08/16 10:03:01;;;;;;;10.20;5.50;;;;;;;-148.88;100.00;-17125.47;4995349;28;20022;-76
2023/08/16 10:05:27;;;;;;;7.57;5.38;;;;;;;-148.88;100.00;-17125.47;4995471;28;20397;-77
2023/08/16 10:07:54;;;;;;;7.88;4.57;;;;;;;-148.88;100.00;-17125.47;4994214;28;20026;-77
2023/08/16 10:10:20;;;;;;;8.43;4.43;;;;;;;-148.88;100.00;-17125.47;4995476;28;20089;-77
2023/08/16 10:12:46;;;;;;;6.40;5.05;;;;;;;-148.88;100.00;-17125.47;4995806;28;20034;-77
2023/08/16 10:15:12;;;;;;;10.82;5.40;;;;;;;-148.88;100.00;-17125.47;4995720;28;20109;-77
2023/08/16 10:17:40;;;;;;;7.50;4.60;;;;;;;-148.88;100.00;-17125.47;4996105;28;20018;-77
2023/08/16 10:20:11;;;;;;;9.48;4.75;;;;;;;-148.88;100.00;-17125.47;4994355;28;20038;-77
2023/08/16 10:22:42;;;;;;;7.28;4.20;;;;;;;-148.88;100.00;-17125.47;4995693;28;20101;-77
2023/08/16 10:25:15;;;;;;;5.32;3.72;;;;;;;-148.88;100.00;-17125.47;4995506;28;20022;-77
2023/08/16 10:27:44;;;;;;;6.20;3.45;;;;;;;-148.88;100.00;-17125.47;4995824;28;20026;-77
2023/08/16 10:30:21;;;;;;;7.70;3.88;;;;;;;-148.88;100.00;-17125.47;4995376;28;20037;-76
2023/08/16 10:32:53;;;;;;;5.85;3.75;;;;;;;-148.88;100.00;-17125.47;4995385;28;20536;-77
2023/08/16 10:35:19;;;;;;;6.53;3.65;;;;;;;-148.88;100.00;-17125.47;4995359;28;20022;-76
2023/08/16 10:37:46;;;;;;;6.97;3.90;;;;;;;-148.88;100.00;-17125.47;4994016;28;20026;-77
2023/08/16 10:40:29;;;;;;;8.20;4.38;;;;;;;-148.88;100.00;-17125.47;4993983;28;20077;-77
2023/08/16 10:42:56;;;;;;;6.30;3.88;;;;;;;-148.88;100.00;-17125.47;4995757;28;20466;-76
2023/08/16 10:45:27;;;;;;;5.70;3.15;;;;;;;-148.88;100.00;-17125.47;4993877;28;20038;-76
2023/08/16 10:47:53;;;;;;;7.25;3.22;;;;;;;-148.88;100.00;-17125.47;4995213;28;20029;-76
2023/08/16 10:50:18;;;;;;;7.78;2.90;;;;;;;-148.88;100.00;-17125.47;4995088;28;20102;-76